sensor_id;sensor_type;location;lat;lon;timestamp;P1;durP1;ratioP1;P2;durP2;ratioP2
4837;SDS011;2433;48.768;9.154;2023-06-19T00:02:00;5.70;;;5.20;;
4837;SDS011;2433;48.768;9.154;2023-06-19T00:04:26;7.27;;;4.70;;
4837;SDS011;2433;48.768;9.154;2023-06-19T00:06:52;6.10;;;4.93;;
4837;SDS011;2433;48.768;9.154;2023-06-19T00:09:18;5.27;;;4.77;;
4837;SDS011;2433;48.768;9.154;2023-06-19T00:11:44;4.83;;;4.43;;
4837;SDS011;2433;48.768;9.154;2023-06-19T00:14:09;5.60;;;5.10;;
4837;SDS011;2433;48.768;9.154;2023-06-19T00:16:35;5.10;;;4.67;;
4837;SDS011;2433;48.768;9.154;2023-06-19T00:19:00;5.77;;;5.17;;
4837;SDS011;2433;48.768;9.154;2023-06-19T00:21:28;5.20;;;4.70;;
4837;SDS011;2433;48.768;9.154;2023-06-19T00:23:55;5.03;;;4.63;;
4837;SDS011;2433;48.768;9.154;2023-06-19T00:26:21;4.60;;;4.20;;
4837;SDS011;2433;48.768;9.154;2023-06-19T00:28:51;4.67;;;4.27;;
4837;SDS011;2433;48.768;9.154;2023-06-19T00:31:17;5.30;;;4.60;;
4837;SDS011;2433;48.768;9.154;2023-06-19T00:33:44;3.90;;;3.60;;
4837;SDS011;2433;48.768;9.154;2023-06-19T00:36:14;4.90;;;4.40;;
4837;SDS011;2433;48.768;9.154;2023-06-19T00:38:40;5.77;;;5.17;;
4837;SDS011;2433;48.768;9.154;2023-06-19T00:41:06;5.20;;;4.50;;
4837;SDS011;2433;48.768;9.154;2023-06-19T00:43:32;5.60;;;5.07;;
4837;SDS011;2433;48.768;9.154;2023-06-19T00:45:58;6.93;;;4.80;;
4837;SDS011;2433;48.768;9.154;2023-06-19T00:48:24;5.00;;;4.60;;
4837;SDS011;2433;48.768;9.154;2023-06-19T00:50:50;5.10;;;4.50;;
4837;SDS011;2433;48.768;9.154;2023-06-19T00:53:17;5.93;;;5.03;;
4837;SDS011;2433;48.768;9.154;2023-06-19T00:55:42;4.80;;;4.40;;
4837;SDS011;2433;48.768;9.154;2023-06-19T00:58:09;5.23;;;4.73;;
4837;SDS011;2433;48.768;9.154;2023-06-19T01:00:35;5.13;;;4.73;;
4837;SDS011;2433;48.768;9.154;2023-06-19T01:03:00;6.30;;;5.53;;
4837;SDS011;2433;48.768;9.154;2023-06-19T01:05:27;5.57;;;4.30;;
4837;SDS011;2433;48.768;9.154;2023-06-19T01:08:02;4.10;;;3.80;;
4837;SDS011;2433;48.768;9.154;2023-06-19T01:10:54;6.10;;;5.50;;
4837;SDS011;2433;48.768;9.154;2023-06-19T01:13:25;5.93;;;4.93;;
4837;SDS011;2433;48.768;9.154;2023-06-19T01:15:54;5.30;;;4.80;;
4837;SDS011;2433;48.768;9.154;2023-06-19T01:18:19;5.10;;;4.20;;
4837;SDS011;2433;48.768;9.154;2023-06-19T01:20:46;4.70;;;4.30;;
4837;SDS011;2433;48.768;9.154;2023-06-19T01:23:11;4.47;;;3.90;;
4837;SDS011;2433;48.768;9.154;2023-06-19T01:25:38;5.17;;;4.23;;
4837;SDS011;2433;48.768;9.154;2023-06-19T01:28:05;3.80;;;3.50;;
4837;SDS011;2433;48.768;9.154;2023-06-19T01:30:34;4.67;;;4.27;;
4837;SDS011;2433;48.768;9.154;2023-06-19T01:33:06;4.50;;;4.10;;
4837;SDS011;2433;48.768;9.154;2023-06-19T01:35:42;4.30;;;3.90;;
4837;SDS011;2433;48.768;9.154;2023-06-19T01:38:07;5.27;;;4.17;;
4837;SDS011;2433;48.768;9.154;2023-06-19T01:40:33;4.27;;;3.50;;
4837;SDS011;2433;48.768;9.154;2023-06-19T01:43:00;3.50;;;3.20;;
4837;SDS011;2433;48.768;9.154;2023-06-19T01:45:29;5.57;;;3.83;;
4837;SDS011;2433;48.768;9.154;2023-06-19T01:47:55;3.70;;;3.40;;
4837;SDS011;2433;48.768;9.154;2023-06-19T01:50:22;4.00;;;3.60;;
4837;SDS011;2433;48.768;9.154;2023-06-19T01:52:50;4.40;;;4.00;;
4837;SDS011;2433;48.768;9.154;2023-06-19T01:55:17;4.10;;;3.70;;
4837;SDS011;2433;48.768;9.154;2023-06-19T01:57:43;4.10;;;3.70;;
4837;SDS011;2433;48.768;9.154;2023-06-19T02:00:11;3.00;;;2.70;;
4837;SDS011;2433;48.768;9.154;2023-06-19T02:02:41;4.73;;;4.20;;
4837;SDS011;2433;48.768;9.154;2023-06-19T02:05:06;3.37;;;3.10;;
4837;SDS011;2433;48.768;9.154;2023-06-19T02:07:32;5.03;;;4.30;;
4837;SDS011;2433;48.768;9.154;2023-06-19T02:09:57;4.87;;;3.70;;
4837;SDS011;2433;48.768;9.154;2023-06-19T02:12:23;3.63;;;3.17;;
4837;SDS011;2433;48.768;9.154;2023-06-19T02:14:49;4.83;;;3.97;;
4837;SDS011;2433;48.768;9.154;2023-06-19T02:17:14;3.00;;;2.70;;
4837;SDS011;2433;48.768;9.154;2023-06-19T02:19:40;4.40;;;3.37;;
4837;SDS011;2433;48.768;9.154;2023-06-19T02:22:05;4.13;;;3.57;;
4837;SDS011;2433;48.768;9.154;2023-06-19T02:24:32;3.60;;;3.30;;
4837;SDS011;2433;48.768;9.154;2023-06-19T02:26:58;3.53;;;3.23;;
4837;SDS011;2433;48.768;9.154;2023-06-19T02:29:24;5.30;;;3.77;;
4837;SDS011;2433;48.768;9.154;2023-06-19T02:31:50;2.67;;;2.47;;
4837;SDS011;2433;48.768;9.154;2023-06-19T02:34:16;4.27;;;3.50;;
4837;SDS011;2433;48.768;9.154;2023-06-19T02:36:41;4.13;;;3.13;;
4837;SDS011;2433;48.768;9.154;2023-06-19T02:39:08;3.97;;;3.57;;
4837;SDS011;2433;48.768;9.154;2023-06-19T02:41:34;3.93;;;3.63;;
4837;SDS011;2433;48.768;9.154;2023-06-19T02:44:02;2.80;;;2.60;;
4837;SDS011;2433;48.768;9.154;2023-06-19T02:46:28;3.87;;;3.00;;
4837;SDS011;2433;48.768;9.154;2023-06-19T02:48:53;3.57;;;2.90;;
4837;SDS011;2433;48.768;9.154;2023-06-19T02:51:21;4.60;;;3.63;;
4837;SDS011;2433;48.768;9.154;2023-06-19T02:53:47;3.10;;;2.80;;
4837;SDS011;2433;48.768;9.154;2023-06-19T02:56:12;3.83;;;3.30;;
4837;SDS011;2433;48.768;9.154;2023-06-19T02:58:38;4.10;;;2.80;;
4837;SDS011;2433;48.768;9.154;2023-06-19T03:01:03;3.50;;;3.20;;
4837;SDS011;2433;48.768;9.154;2023-06-19T03:03:32;4.07;;;3.23;;
4837;SDS011;2433;48.768;9.154;2023-06-19T03:06:05;3.30;;;2.87;;
4837;SDS011;2433;48.768;9.154;2023-06-19T03:08:34;3.10;;;2.80;;
4837;SDS011;2433;48.768;9.154;2023-06-19T03:11:00;3.87;;;2.83;;
4837;SDS011;2433;48.768;9.154;2023-06-19T03:13:32;3.30;;;3.00;;
4837;SDS011;2433;48.768;9.154;2023-06-19T03:16:08;4.77;;;3.00;;
4837;SDS011;2433;48.768;9.154;2023-06-19T03:18:34;8.67;;;3.50;;
4837;SDS011;2433;48.768;9.154;2023-06-19T03:20:59;3.63;;;2.60;;
4837;SDS011;2433;48.768;9.154;2023-06-19T03:23:25;3.43;;;2.67;;
4837;SDS011;2433;48.768;9.154;2023-06-19T03:25:50;3.47;;;3.17;;
4837;SDS011;2433;48.768;9.154;2023-06-19T03:28:16;4.00;;;2.80;;
4837;SDS011;2433;48.768;9.154;2023-06-19T03:30:42;2.63;;;2.43;;
4837;SDS011;2433;48.768;9.154;2023-06-19T03:33:08;3.23;;;2.83;;
4837;SDS011;2433;48.768;9.154;2023-06-19T03:35:38;2.77;;;2.40;;
4837;SDS011;2433;48.768;9.154;2023-06-19T03:38:06;3.97;;;1.80;;
4837;SDS011;2433;48.768;9.154;2023-06-19T03:40:33;2.03;;;1.83;;
4837;SDS011;2433;48.768;9.154;2023-06-19T03:43:05;2.20;;;2.00;;
4837;SDS011;2433;48.768;9.154;2023-06-19T03:45:31;2.43;;;2.17;;
4837;SDS011;2433;48.768;9.154;2023-06-19T03:47:56;3.80;;;2.70;;
4837;SDS011;2433;48.768;9.154;2023-06-19T03:50:22;2.70;;;2.10;;
4837;SDS011;2433;48.768;9.154;2023-06-19T03:52:47;2.77;;;2.30;;
4837;SDS011;2433;48.768;9.154;2023-06-19T03:55:13;1.83;;;1.73;;
4837;SDS011;2433;48.768;9.154;2023-06-19T03:57:39;2.73;;;1.50;;
4837;SDS011;2433;48.768;9.154;2023-06-19T04:00:04;2.03;;;1.87;;
4837;SDS011;2433;48.768;9.154;2023-06-19T04:02:37;2.37;;;2.17;;
4837;SDS011;2433;48.768;9.154;2023-06-19T04:05:03;1.73;;;1.57;;
4837;SDS011;2433;48.768;9.154;2023-06-19T04:07:29;2.73;;;2.10;;
4837;SDS011;2433;48.768;9.154;2023-06-19T04:09:57;3.03;;;2.20;;
4837;SDS011;2433;48.768;9.154;2023-06-19T04:12:23;2.30;;;1.80;;
4837;SDS011;2433;48.768;9.154;2023-06-19T04:14:49;2.13;;;1.93;;
4837;SDS011;2433;48.768;9.154;2023-06-19T04:17:14;2.53;;;2.33;;
4837;SDS011;2433;48.768;9.154;2023-06-19T04:19:41;2.50;;;2.00;;
4837;SDS011;2433;48.768;9.154;2023-06-19T04:22:07;2.80;;;1.90;;
4837;SDS011;2433;48.768;9.154;2023-06-19T04:24:33;2.60;;;2.10;;
4837;SDS011;2433;48.768;9.154;2023-06-19T04:26:58;2.13;;;1.60;;
4837;SDS011;2433;48.768;9.154;2023-06-19T04:29:24;1.97;;;1.80;;
4837;SDS011;2433;48.768;9.154;2023-06-19T04:31:49;2.53;;;2.20;;
4837;SDS011;2433;48.768;9.154;2023-06-19T04:34:15;2.70;;;1.97;;
4837;SDS011;2433;48.768;9.154;2023-06-19T04:36:42;3.03;;;2.27;;
4837;SDS011;2433;48.768;9.154;2023-06-19T04:39:07;2.13;;;1.93;;
4837;SDS011;2433;48.768;9.154;2023-06-19T04:41:34;2.30;;;1.77;;
4837;SDS011;2433;48.768;9.154;2023-06-19T04:44:04;3.33;;;1.83;;
4837;SDS011;2433;48.768;9.154;2023-06-19T04:46:30;2.30;;;1.70;;
4837;SDS011;2433;48.768;9.154;2023-06-19T04:48:55;2.40;;;1.93;;
4837;SDS011;2433;48.768;9.154;2023-06-19T04:51:21;2.67;;;1.83;;
4837;SDS011;2433;48.768;9.154;2023-06-19T04:53:47;2.20;;;1.90;;
4837;SDS011;2433;48.768;9.154;2023-06-19T04:56:13;3.53;;;2.10;;
4837;SDS011;2433;48.768;9.154;2023-06-19T04:58:40;2.93;;;2.00;;
4837;SDS011;2433;48.768;9.154;2023-06-19T05:01:14;1.80;;;1.63;;
4837;SDS011;2433;48.768;9.154;2023-06-19T05:03:40;3.57;;;2.20;;
4837;SDS011;2433;48.768;9.154;2023-06-19T05:06:08;2.30;;;1.53;;
4837;SDS011;2433;48.768;9.154;2023-06-19T05:08:34;2.93;;;2.10;;
4837;SDS011;2433;48.768;9.154;2023-06-19T05:10:59;1.73;;;1.60;;
4837;SDS011;2433;48.768;9.154;2023-06-19T05:13:25;1.40;;;1.30;;
4837;SDS011;2433;48.768;9.154;2023-06-19T05:15:51;2.27;;;1.90;;
4837;SDS011;2433;48.768;9.154;2023-06-19T05:18:16;1.93;;;1.50;;
4837;SDS011;2433;48.768;9.154;2023-06-19T05:20:43;2.60;;;1.70;;
4837;SDS011;2433;48.768;9.154;2023-06-19T05:23:09;2.30;;;1.77;;
4837;SDS011;2433;48.768;9.154;2023-06-19T05:25:34;2.30;;;1.93;;
4837;SDS011;2433;48.768;9.154;2023-06-19T05:28:00;2.43;;;1.77;;
4837;SDS011;2433;48.768;9.154;2023-06-19T05:30:25;1.40;;;1.30;;
4837;SDS011;2433;48.768;9.154;2023-06-19T05:32:51;2.50;;;2.30;;
4837;SDS011;2433;48.768;9.154;2023-06-19T05:35:16;2.23;;;1.63;;
4837;SDS011;2433;48.768;9.154;2023-06-19T05:37:43;2.73;;;1.83;;
4837;SDS011;2433;48.768;9.154;2023-06-19T05:40:09;2.53;;;1.67;;
4837;SDS011;2433;48.768;9.154;2023-06-19T05:42:35;2.30;;;1.63;;
4837;SDS011;2433;48.768;9.154;2023-06-19T05:45:02;1.97;;;1.77;;
4837;SDS011;2433;48.768;9.154;2023-06-19T05:47:29;2.40;;;2.10;;
4837;SDS011;2433;48.768;9.154;2023-06-19T05:49:58;2.70;;;1.80;;
4837;SDS011;2433;48.768;9.154;2023-06-19T05:52:24;2.20;;;1.60;;
4837;SDS011;2433;48.768;9.154;2023-06-19T05:54:50;2.23;;;2.03;;
4837;SDS011;2433;48.768;9.154;2023-06-19T05:57:16;1.60;;;1.50;;
4837;SDS011;2433;48.768;9.154;2023-06-19T05:59:49;1.67;;;1.57;;
4837;SDS011;2433;48.768;9.154;2023-06-19T06:02:15;1.87;;;1.70;;
4837;SDS011;2433;48.768;9.154;2023-06-19T06:04:42;2.87;;;1.87;;
4837;SDS011;2433;48.768;9.154;2023-06-19T06:07:07;2.60;;;1.87;;
4837;SDS011;2433;48.768;9.154;2023-06-19T06:09:34;2.07;;;1.87;;
4837;SDS011;2433;48.768;9.154;2023-06-19T06:11:59;2.47;;;2.13;;
4837;SDS011;2433;48.768;9.154;2023-06-19T06:14:25;3.07;;;1.67;;
4837;SDS011;2433;48.768;9.154;2023-06-19T06:16:51;7.67;;;1.90;;
4837;SDS011;2433;48.768;9.154;2023-06-19T06:19:18;2.00;;;1.80;;
4837;SDS011;2433;48.768;9.154;2023-06-19T06:21:44;3.13;;;2.27;;
4837;SDS011;2433;48.768;9.154;2023-06-19T06:24:10;2.53;;;2.27;;
4837;SDS011;2433;48.768;9.154;2023-06-19T06:26:35;2.30;;;1.80;;
4837;SDS011;2433;48.768;9.154;2023-06-19T06:29:02;1.73;;;1.63;;
4837;SDS011;2433;48.768;9.154;2023-06-19T06:31:27;2.00;;;1.80;;
4837;SDS011;2433;48.768;9.154;2023-06-19T06:33:53;1.93;;;1.63;;
4837;SDS011;2433;48.768;9.154;2023-06-19T06:36:18;1.80;;;1.70;;
4837;SDS011;2433;48.768;9.154;2023-06-19T06:38:44;3.17;;;2.43;;
4837;SDS011;2433;48.768;9.154;2023-06-19T06:41:10;2.40;;;1.93;;
4837;SDS011;2433;48.768;9.154;2023-06-19T06:43:35;2.10;;;1.70;;
4837;SDS011;2433;48.768;9.154;2023-06-19T06:46:01;2.50;;;1.20;;
4837;SDS011;2433;48.768;9.154;2023-06-19T06:48:26;1.60;;;1.50;;
4837;SDS011;2433;48.768;9.154;2023-06-19T06:50:52;1.73;;;1.50;;
4837;SDS011;2433;48.768;9.154;2023-06-19T06:53:26;1.13;;;1.03;;
4837;SDS011;2433;48.768;9.154;2023-06-19T06:56:01;1.20;;;1.10;;
4837;SDS011;2433;48.768;9.154;2023-06-19T06:58:28;1.97;;;1.60;;
4837;SDS011;2433;48.768;9.154;2023-06-19T07:00:54;1.47;;;1.23;;
4837;SDS011;2433;48.768;9.154;2023-06-19T07:03:21;1.60;;;1.50;;
4837;SDS011;2433;48.768;9.154;2023-06-19T07:05:49;1.70;;;1.50;;
4837;SDS011;2433;48.768;9.154;2023-06-19T07:08:15;2.50;;;1.67;;
4837;SDS011;2433;48.768;9.154;2023-06-19T07:10:40;1.43;;;1.30;;
4837;SDS011;2433;48.768;9.154;2023-06-19T07:13:06;1.47;;;1.37;;
4837;SDS011;2433;48.768;9.154;2023-06-19T07:15:31;1.83;;;1.63;;
4837;SDS011;2433;48.768;9.154;2023-06-19T07:17:57;1.33;;;1.23;;
4837;SDS011;2433;48.768;9.154;2023-06-19T07:20:22;1.27;;;1.17;;
4837;SDS011;2433;48.768;9.154;2023-06-19T07:22:50;3.20;;;1.90;;
4837;SDS011;2433;48.768;9.154;2023-06-19T07:25:16;1.73;;;1.63;;
4837;SDS011;2433;48.768;9.154;2023-06-19T07:27:41;2.70;;;2.00;;
4837;SDS011;2433;48.768;9.154;2023-06-19T07:30:07;2.27;;;1.90;;
4837;SDS011;2433;48.768;9.154;2023-06-19T07:32:33;2.23;;;1.30;;
4837;SDS011;2433;48.768;9.154;2023-06-19T07:35:00;1.60;;;1.50;;
4837;SDS011;2433;48.768;9.154;2023-06-19T07:37:25;1.57;;;1.43;;
4837;SDS011;2433;48.768;9.154;2023-06-19T07:39:52;1.23;;;1.10;;
4837;SDS011;2433;48.768;9.154;2023-06-19T07:42:18;1.83;;;1.73;;
4837;SDS011;2433;48.768;9.154;2023-06-19T07:44:44;2.63;;;1.57;;
4837;SDS011;2433;48.768;9.154;2023-06-19T07:47:11;2.10;;;1.90;;
4837;SDS011;2433;48.768;9.154;2023-06-19T07:49:37;2.20;;;1.83;;
4837;SDS011;2433;48.768;9.154;2023-06-19T07:52:03;1.90;;;1.80;;
4837;SDS011;2433;48.768;9.154;2023-06-19T07:54:29;1.60;;;1.43;;
4837;SDS011;2433;48.768;9.154;2023-06-19T07:56:55;1.70;;;1.60;;
4837;SDS011;2433;48.768;9.154;2023-06-19T07:59:21;1.03;;;0.90;;
4837;SDS011;2433;48.768;9.154;2023-06-19T08:01:47;1.77;;;1.63;;
4837;SDS011;2433;48.768;9.154;2023-06-19T08:04:13;1.87;;;1.60;;
4837;SDS011;2433;48.768;9.154;2023-06-19T08:06:39;1.60;;;1.50;;
4837;SDS011;2433;48.768;9.154;2023-06-19T08:09:04;1.70;;;1.60;;
4837;SDS011;2433;48.768;9.154;2023-06-19T08:11:31;1.57;;;1.40;;
4837;SDS011;2433;48.768;9.154;2023-06-19T08:13:57;2.00;;;1.80;;
4837;SDS011;2433;48.768;9.154;2023-06-19T08:16:24;1.83;;;1.73;;
4837;SDS011;2433;48.768;9.154;2023-06-19T08:18:50;2.50;;;1.50;;
4837;SDS011;2433;48.768;9.154;2023-06-19T08:21:16;2.20;;;2.00;;
4837;SDS011;2433;48.768;9.154;2023-06-19T08:23:42;2.40;;;2.20;;
4837;SDS011;2433;48.768;9.154;2023-06-19T08:26:09;2.13;;;1.93;;
4837;SDS011;2433;48.768;9.154;2023-06-19T08:28:35;1.90;;;1.80;;
4837;SDS011;2433;48.768;9.154;2023-06-19T08:31:00;2.73;;;1.67;;
4837;SDS011;2433;48.768;9.154;2023-06-19T08:33:26;1.90;;;1.70;;
4837;SDS011;2433;48.768;9.154;2023-06-19T08:35:51;2.80;;;2.33;;
4837;SDS011;2433;48.768;9.154;2023-06-19T08:38:18;2.20;;;1.80;;
4837;SDS011;2433;48.768;9.154;2023-06-19T08:40:44;2.20;;;1.93;;
4837;SDS011;2433;48.768;9.154;2023-06-19T08:43:10;2.43;;;1.97;;
4837;SDS011;2433;48.768;9.154;2023-06-19T08:45:36;2.20;;;1.47;;
4837;SDS011;2433;48.768;9.154;2023-06-19T08:48:02;2.27;;;1.87;;
4837;SDS011;2433;48.768;9.154;2023-06-19T08:50:34;2.30;;;2.10;;
4837;SDS011;2433;48.768;9.154;2023-06-19T08:52:59;2.50;;;1.97;;
4837;SDS011;2433;48.768;9.154;2023-06-19T08:55:25;1.80;;;1.70;;
4837;SDS011;2433;48.768;9.154;2023-06-19T08:57:51;2.53;;;2.33;;
4837;SDS011;2433;48.768;9.154;2023-06-19T09:00:24;2.00;;;1.70;;
4837;SDS011;2433;48.768;9.154;2023-06-19T09:02:50;1.70;;;1.60;;
4837;SDS011;2433;48.768;9.154;2023-06-19T09:05:16;1.37;;;1.27;;
4837;SDS011;2433;48.768;9.154;2023-06-19T09:07:43;2.40;;;2.10;;
4837;SDS011;2433;48.768;9.154;2023-06-19T09:10:16;2.20;;;2.00;;
4837;SDS011;2433;48.768;9.154;2023-06-19T09:12:58;2.63;;;1.90;;
4837;SDS011;2433;48.768;9.154;2023-06-19T09:15:26;1.50;;;1.40;;
4837;SDS011;2433;48.768;9.154;2023-06-19T09:18:28;1.70;;;1.40;;
4837;SDS011;2433;48.768;9.154;2023-06-19T09:20:45;1.50;;;1.23;;
4837;SDS011;2433;48.768;9.154;2023-06-19T09:23:13;1.80;;;1.67;;
4837;SDS011;2433;48.768;9.154;2023-06-19T09:28:16;2.10;;;1.67;;
4837;SDS011;2433;48.768;9.154;2023-06-19T09:30:59;4.00;;;1.80;;
4837;SDS011;2433;48.768;9.154;2023-06-19T09:33:26;1.53;;;1.43;;
4837;SDS011;2433;48.768;9.154;2023-06-19T09:35:54;1.87;;;1.47;;
4837;SDS011;2433;48.768;9.154;2023-06-19T09:38:21;1.83;;;1.67;;
4837;SDS011;2433;48.768;9.154;2023-06-19T09:40:50;1.60;;;1.50;;
4837;SDS011;2433;48.768;9.154;2023-06-19T09:43:18;2.13;;;1.60;;
4837;SDS011;2433;48.768;9.154;2023-06-19T09:45:48;1.80;;;1.70;;
4837;SDS011;2433;48.768;9.154;2023-06-19T09:48:19;2.70;;;1.87;;
4837;SDS011;2433;48.768;9.154;2023-06-19T09:50:52;2.50;;;2.30;;
4837;SDS011;2433;48.768;9.154;2023-06-19T09:53:20;2.70;;;2.03;;
4837;SDS011;2433;48.768;9.154;2023-06-19T09:55:49;2.83;;;2.43;;
4837;SDS011;2433;48.768;9.154;2023-06-19T09:58:16;2.17;;;1.80;;
4837;SDS011;2433;48.768;9.154;2023-06-19T10:00:44;2.00;;;1.80;;
4837;SDS011;2433;48.768;9.154;2023-06-19T10:03:13;1.23;;;1.13;;
4837;SDS011;2433;48.768;9.154;2023-06-19T10:05:39;3.43;;;2.40;;
4837;SDS011;2433;48.768;9.154;2023-06-19T10:08:06;2.70;;;2.30;;
4837;SDS011;2433;48.768;9.154;2023-06-19T10:10:32;1.60;;;1.50;;
4837;SDS011;2433;48.768;9.154;2023-06-19T10:13:00;3.60;;;2.60;;
4837;SDS011;2433;48.768;9.154;2023-06-19T10:15:40;2.40;;;2.00;;
4837;SDS011;2433;48.768;9.154;2023-06-19T10:18:14;2.20;;;2.00;;
4837;SDS011;2433;48.768;9.154;2023-06-19T10:20:44;3.27;;;2.77;;
4837;SDS011;2433;48.768;9.154;2023-06-19T10:25:48;2.90;;;2.13;;
4837;SDS011;2433;48.768;9.154;2023-06-19T10:30:57;2.10;;;1.90;;
4837;SDS011;2433;48.768;9.154;2023-06-19T10:33:36;2.57;;;2.07;;
4837;SDS011;2433;48.768;9.154;2023-06-19T10:36:18;2.43;;;2.20;;
4837;SDS011;2433;48.768;9.154;2023-06-19T10:38:45;2.90;;;2.60;;
4837;SDS011;2433;48.768;9.154;2023-06-19T10:41:19;3.73;;;3.10;;
4837;SDS011;2433;48.768;9.154;2023-06-19T10:43:56;2.33;;;2.13;;
4837;SDS011;2433;48.768;9.154;2023-06-19T10:46:33;2.80;;;2.60;;
4837;SDS011;2433;48.768;9.154;2023-06-19T10:49:01;2.53;;;2.33;;
4837;SDS011;2433;48.768;9.154;2023-06-19T10:51:39;2.67;;;2.37;;
4837;SDS011;2433;48.768;9.154;2023-06-19T10:54:09;2.60;;;2.40;;
4837;SDS011;2433;48.768;9.154;2023-06-19T10:56:35;2.73;;;2.07;;
4837;SDS011;2433;48.768;9.154;2023-06-19T10:59:01;2.30;;;1.30;;
4837;SDS011;2433;48.768;9.154;2023-06-19T11:01:40;2.57;;;2.37;;
4837;SDS011;2433;48.768;9.154;2023-06-19T11:04:07;2.30;;;1.80;;
4837;SDS011;2433;48.768;9.154;2023-06-19T11:06:35;2.47;;;2.20;;
4837;SDS011;2433;48.768;9.154;2023-06-19T11:09:01;2.80;;;2.50;;
4837;SDS011;2433;48.768;9.154;2023-06-19T11:14:05;3.37;;;2.80;;
4837;SDS011;2433;48.768;9.154;2023-06-19T11:16:32;2.33;;;2.13;;
4837;SDS011;2433;48.768;9.154;2023-06-19T11:18:58;2.70;;;2.50;;
4837;SDS011;2433;48.768;9.154;2023-06-19T11:21:31;2.70;;;2.50;;
4837;SDS011;2433;48.768;9.154;2023-06-19T11:24:02;2.63;;;2.10;;
4837;SDS011;2433;48.768;9.154;2023-06-19T11:26:28;2.73;;;2.53;;
4837;SDS011;2433;48.768;9.154;2023-06-19T11:28:54;3.17;;;2.97;;
4837;SDS011;2433;48.768;9.154;2023-06-19T11:31:26;2.30;;;2.03;;
4837;SDS011;2433;48.768;9.154;2023-06-19T11:33:58;2.30;;;1.80;;
4837;SDS011;2433;48.768;9.154;2023-06-19T11:36:25;2.93;;;2.67;;
4837;SDS011;2433;48.768;9.154;2023-06-19T11:38:51;3.40;;;2.07;;
4837;SDS011;2433;48.768;9.154;2023-06-19T11:41:27;3.37;;;3.07;;
4837;SDS011;2433;48.768;9.154;2023-06-19T11:44:02;2.50;;;2.27;;
4837;SDS011;2433;48.768;9.154;2023-06-19T11:46:32;2.67;;;2.47;;
4837;SDS011;2433;48.768;9.154;2023-06-19T11:49:14;2.57;;;2.37;;
4837;SDS011;2433;48.768;9.154;2023-06-19T11:51:51;2.70;;;2.50;;
4837;SDS011;2433;48.768;9.154;2023-06-19T11:54:19;3.40;;;2.60;;
4837;SDS011;2433;48.768;9.154;2023-06-19T11:56:45;2.30;;;2.10;;
4837;SDS011;2433;48.768;9.154;2023-06-19T11:59:12;3.20;;;2.90;;
4837;SDS011;2433;48.768;9.154;2023-06-19T12:01:39;2.60;;;1.73;;
4837;SDS011;2433;48.768;9.154;2023-06-19T12:04:05;2.70;;;2.50;;
4837;SDS011;2433;48.768;9.154;2023-06-19T12:06:31;2.80;;;2.53;;
4837;SDS011;2433;48.768;9.154;2023-06-19T12:08:57;2.83;;;2.40;;
4837;SDS011;2433;48.768;9.154;2023-06-19T12:11:22;2.63;;;2.43;;
4837;SDS011;2433;48.768;9.154;2023-06-19T12:13:50;3.17;;;2.63;;
4837;SDS011;2433;48.768;9.154;2023-06-19T12:16:15;2.80;;;2.60;;
4837;SDS011;2433;48.768;9.154;2023-06-19T12:18:41;2.60;;;2.37;;
4837;SDS011;2433;48.768;9.154;2023-06-19T12:21:07;3.13;;;2.83;;
4837;SDS011;2433;48.768;9.154;2023-06-19T12:23:33;2.80;;;2.50;;
4837;SDS011;2433;48.768;9.154;2023-06-19T12:25:59;3.30;;;2.77;;
4837;SDS011;2433;48.768;9.154;2023-06-19T12:28:24;2.57;;;2.37;;
4837;SDS011;2433;48.768;9.154;2023-06-19T12:30:50;3.80;;;2.67;;
4837;SDS011;2433;48.768;9.154;2023-06-19T12:33:20;3.10;;;2.70;;
4837;SDS011;2433;48.768;9.154;2023-06-19T12:35:46;2.07;;;1.63;;
4837;SDS011;2433;48.768;9.154;2023-06-19T12:38:12;2.50;;;2.30;;
4837;SDS011;2433;48.768;9.154;2023-06-19T12:40:38;3.30;;;3.00;;
4837;SDS011;2433;48.768;9.154;2023-06-19T12:43:03;3.03;;;2.73;;
4837;SDS011;2433;48.768;9.154;2023-06-19T12:45:29;2.80;;;2.60;;
4837;SDS011;2433;48.768;9.154;2023-06-19T12:47:55;2.80;;;2.60;;
4837;SDS011;2433;48.768;9.154;2023-06-19T12:50:20;2.53;;;2.33;;
4837;SDS011;2433;48.768;9.154;2023-06-19T12:52:47;2.90;;;2.60;;
4837;SDS011;2433;48.768;9.154;2023-06-19T12:55:12;2.63;;;2.33;;
4837;SDS011;2433;48.768;9.154;2023-06-19T12:57:38;2.87;;;2.60;;
4837;SDS011;2433;48.768;9.154;2023-06-19T13:00:05;2.40;;;2.20;;
4837;SDS011;2433;48.768;9.154;2023-06-19T13:02:37;2.90;;;2.70;;
4837;SDS011;2433;48.768;9.154;2023-06-19T13:05:04;2.83;;;2.43;;
4837;SDS011;2433;48.768;9.154;2023-06-19T13:07:31;3.13;;;2.83;;
4837;SDS011;2433;48.768;9.154;2023-06-19T13:09:56;2.60;;;2.30;;
4837;SDS011;2433;48.768;9.154;2023-06-19T13:12:22;2.70;;;2.50;;
4837;SDS011;2433;48.768;9.154;2023-06-19T13:14:47;3.07;;;2.67;;
4837;SDS011;2433;48.768;9.154;2023-06-19T13:17:13;4.40;;;3.10;;
4837;SDS011;2433;48.768;9.154;2023-06-19T13:19:39;2.53;;;2.20;;
4837;SDS011;2433;48.768;9.154;2023-06-19T13:22:05;2.80;;;2.50;;
4837;SDS011;2433;48.768;9.154;2023-06-19T13:24:31;2.57;;;2.37;;
4837;SDS011;2433;48.768;9.154;2023-06-19T13:26:56;3.10;;;2.40;;
4837;SDS011;2433;48.768;9.154;2023-06-19T13:29:23;2.33;;;2.13;;
4837;SDS011;2433;48.768;9.154;2023-06-19T13:31:49;2.90;;;2.60;;
4837;SDS011;2433;48.768;9.154;2023-06-19T13:34:14;3.10;;;2.80;;
4837;SDS011;2433;48.768;9.154;2023-06-19T13:36:41;3.93;;;3.23;;
4837;SDS011;2433;48.768;9.154;2023-06-19T13:39:07;2.80;;;2.40;;
4837;SDS011;2433;48.768;9.154;2023-06-19T13:41:32;2.77;;;2.57;;
4837;SDS011;2433;48.768;9.154;2023-06-19T13:43:58;2.50;;;2.30;;
4837;SDS011;2433;48.768;9.154;2023-06-19T13:46:24;2.53;;;2.33;;
4837;SDS011;2433;48.768;9.154;2023-06-19T13:48:51;3.80;;;3.17;;
4837;SDS011;2433;48.768;9.154;2023-06-19T13:51:17;2.67;;;2.47;;
4837;SDS011;2433;48.768;9.154;2023-06-19T13:53:43;2.70;;;2.50;;
4837;SDS011;2433;48.768;9.154;2023-06-19T13:56:09;2.97;;;2.57;;
4837;SDS011;2433;48.768;9.154;2023-06-19T13:58:35;2.60;;;2.17;;
4837;SDS011;2433;48.768;9.154;2023-06-19T14:01:01;3.53;;;2.70;;
4837;SDS011;2433;48.768;9.154;2023-06-19T14:03:27;2.77;;;2.57;;
4837;SDS011;2433;48.768;9.154;2023-06-19T14:05:52;2.50;;;2.30;;
4837;SDS011;2433;48.768;9.154;2023-06-19T14:08:18;2.17;;;1.97;;
4837;SDS011;2433;48.768;9.154;2023-06-19T14:10:44;4.37;;;3.00;;
4837;SDS011;2433;48.768;9.154;2023-06-19T14:13:09;2.90;;;2.70;;
4837;SDS011;2433;48.768;9.154;2023-06-19T14:15:35;2.20;;;2.07;;
4837;SDS011;2433;48.768;9.154;2023-06-19T14:18:01;2.77;;;2.57;;
4837;SDS011;2433;48.768;9.154;2023-06-19T14:20:27;3.10;;;2.80;;
4837;SDS011;2433;48.768;9.154;2023-06-19T14:22:52;3.13;;;2.87;;
4837;SDS011;2433;48.768;9.154;2023-06-19T14:25:18;3.47;;;3.17;;
4837;SDS011;2433;48.768;9.154;2023-06-19T14:27:44;2.50;;;2.30;;
4837;SDS011;2433;48.768;9.154;2023-06-19T14:30:09;3.37;;;3.07;;
4837;SDS011;2433;48.768;9.154;2023-06-19T14:32:35;2.43;;;2.23;;
4837;SDS011;2433;48.768;9.154;2023-06-19T14:35:04;2.60;;;2.40;;
4837;SDS011;2433;48.768;9.154;2023-06-19T14:37:31;3.90;;;2.43;;
4837;SDS011;2433;48.768;9.154;2023-06-19T14:39:56;2.80;;;2.60;;
4837;SDS011;2433;48.768;9.154;2023-06-19T14:42:22;2.90;;;2.43;;
4837;SDS011;2433;48.768;9.154;2023-06-19T14:44:47;3.33;;;2.20;;
4837;SDS011;2433;48.768;9.154;2023-06-19T14:47:13;2.93;;;2.63;;
4837;SDS011;2433;48.768;9.154;2023-06-19T14:49:38;2.30;;;2.07;;
4837;SDS011;2433;48.768;9.154;2023-06-19T14:52:04;3.80;;;2.90;;
4837;SDS011;2433;48.768;9.154;2023-06-19T14:54:31;2.53;;;2.30;;
4837;SDS011;2433;48.768;9.154;2023-06-19T14:56:56;3.60;;;2.13;;
4837;SDS011;2433;48.768;9.154;2023-06-19T14:59:22;2.70;;;2.50;;
4837;SDS011;2433;48.768;9.154;2023-06-19T15:01:48;2.87;;;2.67;;
4837;SDS011;2433;48.768;9.154;2023-06-19T15:04:13;2.70;;;2.40;;
4837;SDS011;2433;48.768;9.154;2023-06-19T15:06:39;3.27;;;2.70;;
4837;SDS011;2433;48.768;9.154;2023-06-19T15:09:05;2.60;;;2.40;;
4837;SDS011;2433;48.768;9.154;2023-06-19T15:11:30;2.33;;;2.17;;
4837;SDS011;2433;48.768;9.154;2023-06-19T15:13:56;3.37;;;3.03;;
4837;SDS011;2433;48.768;9.154;2023-06-19T15:16:21;2.33;;;2.13;;
4837;SDS011;2433;48.768;9.154;2023-06-19T15:18:50;3.40;;;2.90;;
4837;SDS011;2433;48.768;9.154;2023-06-19T15:21:16;3.23;;;2.70;;
4837;SDS011;2433;48.768;9.154;2023-06-19T15:23:42;2.83;;;2.63;;
4837;SDS011;2433;48.768;9.154;2023-06-19T15:26:08;3.40;;;2.87;;